Enterprise, Kansas
Current Conditions -  °F | °C
As of 8:35 PM on Wednesday 22 Oct 2014 (Local Time) from KFRI Reporting Station
Drizzle Drizzle  
Wind Chill: 72°   Ceiling: Unl
Heat Index: 72°   Visibility: 10mi
Dew Point: 55°   Wind: 12mph
Humidity: 57%   Direction: 190°S
Pressure: 30.04"   Gusts: NA
Location:  38.9°N, 97.12°W
Report Text: KFRI 230135Z AUTO 19010KT 10SM -DZ FEW080 22/13 A3004 RMK AO2 DZB0103
Loading
Personal Weather Stations






























Interactive Weather Map
Tropical Storm Tracking
New forecast layout! Learn more

10-Day Weather Forecast

Advertisements
Track Severe Weather on mobile